Time;durP1;ratioP1;P1;durP2;ratioP2;P2;SDS_P1;SDS_P2;PMS_P1;PMS_P2;Temp;Humidity;BMP_temperature;BMP_pressure;BME280_temperature;BME280_humidity;BME280_pressure;Samples;Min_cycle;Max_cycle;Signal;HPM_P1;HPM_P2
2022/03/16 00:01:49;;;;;;;28.38;14.70;;;3.70;99.90;;;;;;5046061;28;20699;-58
2022/03/16 00:04:14;;;;;;;26.02;14.23;;;3.70;99.90;;;;;;5050744;28;20029;-58
2022/03/16 00:06:40;;;;;;;25.38;14.85;;;3.80;99.90;;;;;;5048945;28;20018;-61
2022/03/16 00:09:06;;;;;;;28.52;14.73;;;3.80;99.90;;;;;;5050094;28;20029;-60
2022/03/16 00:11:31;;;;;;;24.25;15.45;;;3.80;99.90;;;;;;5051388;28;20132;-60
2022/03/16 00:13:58;;;;;;;24.10;14.85;;;3.80;99.90;;;;;;5051416;28;20064;-60
2022/03/16 00:16:24;;;;;;;29.23;14.95;;;3.90;99.90;;;;;;5052214;28;20017;-60
2022/03/16 00:18:49;;;;;;;22.75;13.65;;;3.80;99.90;;;;;;5051304;28;20044;-61
2022/03/16 00:21:15;;;;;;;28.75;14.70;;;3.90;99.90;;;;;;5051763;28;20047;-60
2022/03/16 00:23:40;;;;;;;27.95;14.18;;;3.90;99.90;;;;;;5049924;28;20486;-61
2022/03/16 00:26:06;;;;;;;24.65;15.38;;;4.00;99.90;;;;;;5049666;28;20025;-60
2022/03/16 00:28:31;;;;;;;21.02;12.45;;;4.00;99.90;;;;;;5051176;28;20482;-60
2022/03/16 00:30:57;;;;;;;21.23;13.32;;;4.00;99.90;;;;;;5051038;28;20536;-59
2022/03/16 00:33:22;;;;;;;27.02;13.75;;;4.00;99.90;;;;;;5047890;28;20036;-61
2022/03/16 00:35:48;;;;;;;26.08;13.70;;;3.90;99.90;;;;;;5051168;28;20013;-60
2022/03/16 00:38:16;;;;;;;20.15;12.35;;;3.80;99.90;;;;;;5050394;28;20025;-59
2022/03/16 00:40:42;;;;;;;21.63;12.90;;;3.60;99.90;;;;;;5051970;28;20405;-59
2022/03/16 00:43:08;;;;;;;23.27;13.18;;;3.50;99.90;;;;;;5051198;28;20040;-59
2022/03/16 00:45:34;;;;;;;26.30;13.90;;;3.30;99.90;;;;;;5044267;28;20033;-57
2022/03/16 00:47:59;;;;;;;24.80;13.63;;;3.30;99.90;;;;;;5045727;28;20581;-57
2022/03/16 00:50:25;;;;;;;23.98;13.27;;;3.30;99.90;;;;;;5046037;28;20077;-60
2022/03/16 00:52:50;;;;;;;26.90;14.38;;;3.40;99.90;;;;;;5050425;28;20027;-61
2022/03/16 00:55:16;;;;;;;29.45;14.38;;;3.30;99.90;;;;;;5050512;28;20031;-59
2022/03/16 00:57:41;;;;;;;27.70;14.45;;;3.10;99.90;;;;;;5051814;28;20025;-61
2022/03/16 01:00:08;;;;;;;25.42;14.38;;;3.10;99.90;;;;;;5051853;28;20037;-60
2022/03/16 01:02:33;;;;;;;26.40;14.48;;;3.10;99.90;;;;;;5050700;28;20036;-60
2022/03/16 01:04:59;;;;;;;27.98;14.18;;;3.00;99.90;;;;;;5044980;28;20021;-60
2022/03/16 01:07:25;;;;;;;35.25;16.15;;;2.90;99.90;;;;;;5051676;28;20028;-57
2022/03/16 01:09:51;;;;;;;27.83;15.25;;;3.00;99.90;;;;;;5032748;28;20491;-58
2022/03/16 01:12:17;;;;;;;26.25;15.00;;;3.00;99.90;;;;;;5051993;28;20025;-61
2022/03/16 01:14:43;;;;;;;28.92;15.40;;;3.10;99.90;;;;;;5051460;28;20078;-59
2022/03/16 01:17:08;;;;;;;26.98;15.65;;;3.20;99.90;;;;;;5051930;28;20104;-60
2022/03/16 01:19:34;;;;;;;28.52;15.57;;;3.30;99.90;;;;;;5050005;28;20036;-59
2022/03/16 01:22:02;;;;;;;26.77;15.60;;;3.30;99.90;;;;;;5050683;28;20052;-58
2022/03/16 01:24:27;;;;;;;26.40;15.63;;;3.40;99.90;;;;;;5051797;28;20025;-59
2022/03/16 01:26:53;;;;;;;30.42;16.80;;;3.20;99.90;;;;;;5051805;28;20112;-61
2022/03/16 01:29:19;;;;;;;34.60;17.80;;;3.10;99.90;;;;;;5051586;28;20051;-59
2022/03/16 01:31:44;;;;;;;33.90;17.45;;;2.90;99.90;;;;;;5051704;28;20013;-59
2022/03/16 01:34:10;;;;;;;35.63;17.17;;;2.80;99.90;;;;;;5050707;28;20100;-59
2022/03/16 01:36:37;;;;;;;28.17;16.60;;;2.90;99.90;;;;;;5051871;28;20025;-57
2022/03/16 01:39:04;;;;;;;28.60;17.30;;;2.90;99.90;;;;;;5052095;28;20029;-60
2022/03/16 01:41:29;;;;;;;28.50;17.13;;;3.00;99.90;;;;;;5051504;28;20021;-61
2022/03/16 01:43:56;;;;;;;30.90;16.65;;;3.00;99.90;;;;;;5050504;28;20082;-60
2022/03/16 01:46:22;;;;;;;27.50;16.38;;;2.90;99.90;;;;;;5051386;28;20024;-60
2022/03/16 01:48:48;;;;;;;29.48;17.35;;;3.00;99.90;;;;;;5049998;28;20572;-59
2022/03/16 01:51:13;;;;;;;36.72;17.95;;;3.00;99.90;;;;;;5049635;28;20089;-59
2022/03/16 01:53:43;;;;;;;32.78;17.10;;;2.90;99.90;;;;;;5049173;28;20009;-62
2022/03/16 01:56:09;;;;;;;34.83;17.15;;;2.70;99.90;;;;;;5051039;28;20024;-60
2022/03/16 01:58:35;;;;;;;31.30;17.42;;;2.60;99.90;;;;;;5051041;28;20025;-58
2022/03/16 02:01:01;;;;;;;36.17;19.38;;;2.60;99.90;;;;;;5050586;28;20035;-58
2022/03/16 02:03:26;;;;;;;33.17;17.70;;;2.60;99.90;;;;;;5050695;28;20482;-60
2022/03/16 02:05:52;;;;;;;30.55;17.75;;;2.50;99.90;;;;;;5046956;28;20086;-59
2022/03/16 02:08:18;;;;;;;30.27;18.30;;;2.50;99.90;;;;;;5050903;28;20074;-60
2022/03/16 02:10:43;;;;;;;32.13;18.20;;;2.50;99.90;;;;;;5050913;28;20037;-59
2022/03/16 02:13:10;;;;;;;35.03;20.00;;;2.50;99.90;;;;;;5051225;28;20031;-60
2022/03/16 02:15:36;;;;;;;45.35;22.20;;;2.50;99.90;;;;;;5050438;28;20051;-59
2022/03/16 02:18:02;;;;;;;42.42;20.52;;;2.40;99.90;;;;;;5050664;28;20029;-60
2022/03/16 02:20:28;;;;;;;37.83;19.13;;;2.20;99.90;;;;;;5050310;28;20071;-58
2022/03/16 02:23:05;;;;;;;40.13;19.30;;;2.10;99.90;;;;;;5033056;28;20033;-60
2022/03/16 02:25:31;;;;;;;32.17;18.65;;;2.00;99.90;;;;;;5045883;28;20021;-59
2022/03/16 02:27:57;;;;;;;32.67;19.08;;;2.00;99.90;;;;;;5050439;28;20087;-58
2022/03/16 02:30:25;;;;;;;33.15;18.77;;;2.10;99.90;;;;;;5050292;28;20116;-60
2022/03/16 02:32:51;;;;;;;33.78;18.67;;;2.30;99.90;;;;;;5032766;28;20033;-60
2022/03/16 02:35:17;;;;;;;33.65;17.27;;;2.40;99.90;;;;;;5050121;28;20020;-60
2022/03/16 02:37:43;;;;;;;33.80;18.35;;;2.50;99.90;;;;;;5050279;28;20029;-60
2022/03/16 02:40:15;;;;;;;33.30;18.00;;;2.60;99.90;;;;;;5050428;28;20029;-60
2022/03/16 02:42:40;;;;;;;33.08;17.30;;;2.70;99.90;;;;;;5050054;28;20071;-61
2022/03/16 02:45:07;;;;;;;29.33;16.45;;;2.70;99.90;;;;;;5048585;28;20363;-60
2022/03/16 02:47:33;;;;;;;30.60;14.73;;;2.70;99.90;;;;;;5050536;28;20055;-60
2022/03/16 02:50:00;;;;;;;22.00;13.75;;;2.40;99.90;;;;;;5050690;28;20032;-59
2022/03/16 02:52:25;;;;;;;25.08;14.73;;;2.20;99.90;;;;;;5049577;28;20033;-62
2022/03/16 02:54:51;;;;;;;30.38;15.13;;;2.00;99.90;;;;;;5050230;28;20394;-61
2022/03/16 02:57:17;;;;;;;29.95;16.88;;;2.00;99.90;;;;;;5049710;28;20017;-60
2022/03/16 02:59:43;;;;;;;28.90;15.30;;;2.20;99.90;;;;;;5049272;28;20017;-60
2022/03/16 03:02:09;;;;;;;30.90;16.55;;;2.30;99.90;;;;;;5044853;28;20477;-61
2022/03/16 03:04:35;;;;;;;27.45;16.17;;;2.20;99.90;;;;;;5049840;28;20053;-59
2022/03/16 03:07:00;;;;;;;23.83;14.70;;;2.30;99.90;;;;;;5050302;28;20075;-60
2022/03/16 03:09:26;;;;;;;29.60;16.35;;;2.30;99.90;;;;;;5050992;28;20033;-60
2022/03/16 03:11:52;;;;;;;31.30;17.15;;;2.40;99.90;;;;;;5050740;28;20016;-59
2022/03/16 03:14:17;;;;;;;28.50;16.00;;;2.40;99.90;;;;;;5049832;28;20025;-58
2022/03/16 03:16:43;;;;;;;30.20;17.10;;;2.40;99.90;;;;;;5051613;28;20016;-59
2022/03/16 03:19:08;;;;;;;33.75;17.05;;;2.50;99.90;;;;;;5035533;28;20060;-61
2022/03/16 03:21:34;;;;;;;35.25;18.85;;;2.50;99.90;;;;;;5053296;28;20037;-60
2022/03/16 03:24:00;;;;;;;34.90;18.23;;;2.50;99.90;;;;;;5053746;28;20068;-60
2022/03/16 03:26:25;;;;;;;39.00;18.55;;;2.60;99.90;;;;;;5054337;28;20383;-59
2022/03/16 03:28:51;;;;;;;39.25;19.83;;;2.70;99.90;;;;;;5053289;28;20021;-60
2022/03/16 03:31:17;;;;;;;41.72;20.98;;;2.70;99.90;;;;;;5051804;28;20028;-60
2022/03/16 03:33:43;;;;;;;37.15;20.98;;;2.70;99.90;;;;;;5053113;28;20021;-60
2022/03/16 03:36:08;;;;;;;41.88;22.90;;;2.80;99.90;;;;;;5053944;28;20429;-60
2022/03/16 03:38:34;;;;;;;41.45;21.83;;;2.80;99.90;;;;;;5053539;28;20110;-59
2022/03/16 03:40:59;;;;;;;37.08;21.23;;;2.90;99.90;;;;;;5053212;28;20060;-60
2022/03/16 03:43:25;;;;;;;46.17;21.30;;;2.80;99.90;;;;;;5052561;28;20052;-59
2022/03/16 03:45:50;;;;;;;40.78;21.63;;;2.90;99.90;;;;;;5053011;28;20099;-60
2022/03/16 03:48:16;;;;;;;46.15;23.17;;;2.90;99.90;;;;;;5053792;28;20479;-60
2022/03/16 03:50:41;;;;;;;45.97;23.90;;;3.00;99.90;;;;;;5051880;28;20021;-57
2022/03/16 03:53:07;;;;;;;43.10;22.75;;;3.00;99.90;;;;;;5051095;28;20111;-60
2022/03/16 03:55:32;;;;;;;47.45;23.00;;;3.00;99.90;;;;;;5050392;28;20569;-60
2022/03/16 03:57:58;;;;;;;53.35;23.73;;;3.00;99.90;;;;;;5053293;28;20479;-60
2022/03/16 04:00:24;;;;;;;56.25;26.23;;;3.00;99.90;;;;;;5053371;28;20025;-60
2022/03/16 04:02:51;;;;;;;57.10;25.67;;;3.10;99.90;;;;;;5095485;23;20040;-61
2022/03/16 04:05:17;;;;;;;64.68;26.42;;;3.10;99.90;;;;;;5066141;28;20025;-60
2022/03/16 04:07:43;;;;;;;77.95;31.10;;;3.20;99.90;;;;;;5091798;28;20379;-58
2022/03/16 04:10:09;;;;;;;79.13;30.40;;;3.20;99.90;;;;;;5091651;28;20030;-60
2022/03/16 04:12:35;;;;;;;96.03;31.65;;;3.30;99.90;;;;;;5079397;28;20032;-58
2022/03/16 04:15:00;;;;;;;87.25;31.98;;;3.40;99.90;;;;;;5068502;28;20082;-62
2022/03/16 04:17:26;;;;;;;80.43;29.83;;;3.40;99.90;;;;;;5070961;28;20032;-61
2022/03/16 04:19:51;;;;;;;80.22;30.20;;;3.50;99.90;;;;;;5067852;28;20036;-59
2022/03/16 04:22:17;;;;;;;80.85;29.55;;;3.50;99.90;;;;;;5069772;28;20036;-62
2022/03/16 04:24:42;;;;;;;78.47;27.40;;;3.50;99.90;;;;;;5070857;28;20082;-59
2022/03/16 04:27:08;;;;;;;85.20;29.35;;;3.50;99.90;;;;;;5070869;28;20024;-59
2022/03/16 04:29:34;;;;;;;88.80;29.92;;;3.50;99.90;;;;;;5070900;28;20017;-61
2022/03/16 04:31:59;;;;;;;69.75;27.27;;;3.60;99.90;;;;;;5069415;28;20037;-60
2022/03/16 04:34:25;;;;;;;78.80;29.55;;;3.60;99.90;;;;;;5070684;28;20019;-60
2022/03/16 04:36:50;;;;;;;83.70;29.38;;;3.60;99.90;;;;;;5071287;28;20025;-60
2022/03/16 04:39:16;;;;;;;67.95;25.70;;;3.70;99.90;;;;;;5070630;28;20020;-60
2022/03/16 04:41:42;;;;;;;73.53;27.55;;;3.70;99.90;;;;;;5070746;28;20017;-60
2022/03/16 04:44:08;;;;;;;77.65;27.67;;;3.70;99.90;;;;;;5070739;28;20402;-61
2022/03/16 04:46:33;;;;;;;77.28;28.27;;;3.80;99.90;;;;;;5070661;28;20496;-60
2022/03/16 04:48:59;;;;;;;104.75;28.45;;;3.80;99.90;;;;;;5071126;28;20031;-61
2022/03/16 04:51:25;;;;;;;75.57;28.90;;;3.80;99.90;;;;;;5070083;28;20048;-59
2022/03/16 04:53:50;;;;;;;74.07;27.85;;;3.80;99.90;;;;;;5070355;28;20031;-61
2022/03/16 04:56:16;;;;;;;83.00;28.60;;;3.80;99.90;;;;;;5070864;28;20374;-61
2022/03/16 04:58:41;;;;;;;75.53;27.95;;;3.80;99.90;;;;;;5069952;28;20107;-61
2022/03/16 05:01:07;;;;;;;70.55;27.27;;;3.80;99.90;;;;;;5070231;28;20036;-61
2022/03/16 05:03:32;;;;;;;59.63;26.13;;;3.80;99.90;;;;;;5068039;28;20028;-60
2022/03/16 05:05:58;;;;;;;69.75;28.02;;;3.70;99.90;;;;;;5069469;28;20082;-61
2022/03/16 05:08:24;;;;;;;67.18;27.73;;;3.70;99.90;;;;;;5069837;28;20086;-61
2022/03/16 05:10:49;;;;;;;64.65;26.92;;;3.60;99.90;;;;;;5070246;28;20032;-61
2022/03/16 05:13:15;;;;;;;65.90;26.38;;;3.50;99.90;;;;;;5068280;28;20100;-61
2022/03/16 05:15:40;;;;;;;64.60;27.08;;;3.50;99.90;;;;;;5069754;28;20024;-61
2022/03/16 05:18:06;;;;;;;59.47;25.08;;;3.50;99.90;;;;;;5069446;28;20037;-60
2022/03/16 05:20:32;;;;;;;55.78;25.42;;;3.50;99.90;;;;;;5070493;28;20478;-62
2022/03/16 05:22:57;;;;;;;48.83;22.33;;;3.40;99.90;;;;;;5068385;28;20024;-62
2022/03/16 05:25:26;;;;;;;45.58;22.40;;;3.30;99.90;;;;;;5067878;28;20116;-62
2022/03/16 05:27:52;;;;;;;45.70;22.48;;;3.30;99.90;;;;;;5068694;28;20035;-61
2022/03/16 05:30:20;;;;;;;45.65;22.00;;;3.30;99.90;;;;;;5069248;28;20017;-61
2022/03/16 05:32:46;;;;;;;46.05;22.00;;;3.30;99.90;;;;;;5065452;28;20624;-62
2022/03/16 05:35:13;;;;;;;40.20;21.67;;;3.40;99.90;;;;;;5069304;28;20041;-61
2022/03/16 05:37:40;;;;;;;39.13;19.85;;;3.30;99.90;;;;;;5069147;28;20036;-60
2022/03/16 05:40:07;;;;;;;40.95;21.27;;;3.30;99.90;;;;;;5069013;28;20402;-59
2022/03/16 05:42:33;;;;;;;39.78;19.15;;;3.20;99.90;;;;;;5066018;28;20382;-59
2022/03/16 05:44:59;;;;;;;39.42;21.52;;;3.30;99.90;;;;;;5068928;28;20029;-61
2022/03/16 05:47:25;;;;;;;40.42;19.88;;;3.30;99.90;;;;;;5068263;28;20028;-62
2022/03/16 05:49:52;;;;;;;37.67;20.58;;;3.20;99.90;;;;;;5069036;28;20025;-62
2022/03/16 05:52:21;;;;;;;39.47;20.23;;;3.30;99.90;;;;;;5067732;28;20052;-60
2022/03/16 05:54:48;;;;;;;43.35;20.58;;;3.40;99.90;;;;;;5069137;28;20012;-61
2022/03/16 05:57:15;;;;;;;40.40;19.25;;;3.40;99.90;;;;;;5068386;28;20129;-60
2022/03/16 05:59:41;;;;;;;41.08;20.23;;;3.50;99.90;;;;;;5069780;28;20234;-61
2022/03/16 06:02:07;;;;;;;43.28;21.83;;;3.50;99.90;;;;;;5063533;28;20119;-58
2022/03/16 06:04:33;;;;;;;42.60;20.35;;;3.50;99.90;;;;;;5067997;28;20167;-58
2022/03/16 06:06:58;;;;;;;54.75;23.30;;;3.60;99.90;;;;;;5067781;28;20460;-59
2022/03/16 06:09:23;;;;;;;53.75;22.67;;;3.60;99.90;;;;;;5067556;28;20055;-58
2022/03/16 06:11:49;;;;;;;54.72;23.25;;;3.70;99.90;;;;;;5068186;28;20020;-57
2022/03/16 06:14:15;;;;;;;60.78;25.33;;;3.70;99.90;;;;;;5066889;28;20466;-56
2022/03/16 06:16:40;;;;;;;55.85;25.88;;;3.70;99.90;;;;;;5062388;28;20052;-59
2022/03/16 06:19:06;;;;;;;70.45;27.20;;;3.80;99.90;;;;;;5064814;28;20356;-60
2022/03/16 06:21:31;;;;;;;56.55;25.02;;;3.80;99.90;;;;;;5067020;28;20025;-54
2022/03/16 06:23:57;;;;;;;60.92;25.88;;;3.90;99.90;;;;;;5067713;28;20024;-59
2022/03/16 06:26:22;;;;;;;55.50;24.17;;;3.90;99.90;;;;;;5067445;28;20040;-60
2022/03/16 06:28:48;;;;;;;61.10;25.63;;;4.00;99.90;;;;;;5067227;28;20025;-58
2022/03/16 06:31:13;;;;;;;54.92;23.27;;;4.00;99.90;;;;;;5067730;28;20351;-58
2022/03/16 06:33:39;;;;;;;49.83;23.95;;;4.10;99.90;;;;;;5068208;28;20024;-58
2022/03/16 06:36:04;;;;;;;45.45;22.77;;;4.10;99.90;;;;;;5063304;28;20032;-60
2022/03/16 06:38:30;;;;;;;60.38;25.13;;;4.20;99.90;;;;;;5066745;28;20025;-59
2022/03/16 06:40:55;;;;;;;50.97;21.90;;;4.10;99.90;;;;;;5069479;28;20021;-59
2022/03/16 06:43:21;;;;;;;46.30;21.83;;;4.20;99.90;;;;;;5068567;28;20024;-60
2022/03/16 06:45:47;;;;;;;53.60;24.17;;;4.30;99.90;;;;;;5061852;28;20038;-60
2022/03/16 06:48:12;;;;;;;50.05;23.33;;;4.40;99.90;;;;;;5068292;28;20111;-60
2022/03/16 06:50:38;;;;;;;51.90;21.73;;;4.30;99.90;;;;;;5068067;28;20032;-58
2022/03/16 06:53:03;;;;;;;46.17;23.10;;;4.40;99.90;;;;;;5067351;28;20078;-58
2022/03/16 06:55:29;;;;;;;44.15;22.88;;;4.50;99.90;;;;;;5067487;28;20079;-58
2022/03/16 06:57:55;;;;;;;49.45;23.25;;;4.40;99.90;;;;;;5068898;28;20028;-58
2022/03/16 07:00:21;;;;;;;47.05;22.65;;;4.50;99.90;;;;;;5067883;28;20540;-62
2022/03/16 07:03:05;;;;;;;44.95;22.77;;;4.60;99.90;;;;;;5068676;28;20032;-59
2022/03/16 07:05:34;;;;;;;48.72;23.35;;;4.60;99.90;;;;;;5069409;28;20481;-58
2022/03/16 07:08:04;;;;;;;48.08;22.98;;;4.80;99.90;;;;;;5068435;28;20104;-59
2022/03/16 07:10:31;;;;;;;43.85;22.02;;;4.80;99.90;;;;;;5068406;28;20024;-61
2022/03/16 07:12:57;;;;;;;52.08;24.27;;;4.80;99.90;;;;;;5067715;28;20327;-60
2022/03/16 07:15:23;;;;;;;54.30;24.92;;;4.70;99.90;;;;;;5066905;28;20024;-59
2022/03/16 07:17:48;;;;;;;50.75;25.30;;;4.70;99.90;;;;;;5068478;28;20056;-61
2022/03/16 07:20:14;;;;;;;52.22;26.08;;;4.70;99.90;;;;;;5068974;28;20569;-59
2022/03/16 07:22:40;;;;;;;54.92;25.92;;;4.70;99.90;;;;;;5068007;28;20382;-62
2022/03/16 07:25:10;;;;;;;57.17;28.30;;;4.70;99.90;;;;;;5068578;28;20058;-58
2022/03/16 07:27:40;;;;;;;60.38;29.55;;;4.80;99.90;;;;;;5066587;28;20462;-61
2022/03/16 07:30:07;;;;;;;62.75;29.80;;;4.90;99.90;;;;;;5067561;28;20040;-61
2022/03/16 07:32:38;;;;;;;54.95;27.73;;;4.90;99.90;;;;;;5067819;28;20016;-59
2022/03/16 07:35:04;;;;;;;57.20;29.25;;;5.00;99.90;;;;;;5067611;28;20215;-59
2022/03/16 07:37:29;;;;;;;54.33;27.33;;;5.10;99.90;;;;;;5067478;28;20187;-58
2022/03/16 07:39:55;;;;;;;50.60;24.98;;;5.20;99.90;;;;;;5067663;28;20070;-57
2022/03/16 07:42:20;;;;;;;51.97;24.85;;;5.20;99.90;;;;;;5067912;28;20070;-61
2022/03/16 07:44:47;;;;;;;47.90;24.27;;;5.30;99.90;;;;;;5067623;28;20020;-56
2022/03/16 07:47:12;;;;;;;46.22;23.02;;;5.40;99.90;;;;;;5067979;28;20131;-60
2022/03/16 07:49:38;;;;;;;48.85;24.35;;;5.50;99.90;;;;;;5067454;28;20166;-59
2022/03/16 07:52:04;;;;;;;48.75;23.55;;;5.50;99.90;;;;;;5065830;28;20040;-59
2022/03/16 07:54:29;;;;;;;40.55;21.17;;;5.60;99.90;;;;;;5068181;28;20428;-61
2022/03/16 07:56:56;;;;;;;39.58;20.60;;;5.70;99.90;;;;;;5067521;28;20055;-61
2022/03/16 07:59:21;;;;;;;37.90;20.13;;;5.70;99.90;;;;;;5067292;28;20494;-59
2022/03/16 08:01:47;;;;;;;38.33;21.02;;;5.80;99.90;;;;;;5067382;28;20039;-57
2022/03/16 08:04:15;;;;;;;34.65;19.27;;;5.90;99.90;;;;;;5069710;28;20055;-57
2022/03/16 08:06:41;;;;;;;37.45;20.20;;;5.90;99.90;;;;;;5071323;28;20032;-61
2022/03/16 08:09:07;;;;;;;37.25;19.27;;;6.00;99.90;;;;;;5070159;28;20077;-60
2022/03/16 08:11:32;;;;;;;35.13;19.13;;;6.10;99.90;;;;;;5071391;28;20025;-57
2022/03/16 08:13:58;;;;;;;34.17;19.13;;;6.10;99.90;;;;;;5069339;28;20025;-60
2022/03/16 08:16:23;;;;;;;36.00;19.08;;;6.30;99.90;;;;;;5070627;28;20025;-59
2022/03/16 08:18:49;;;;;;;34.60;18.58;;;6.40;99.90;;;;;;5071126;28;20036;-58
2022/03/16 08:21:14;;;;;;;31.40;17.98;;;6.50;99.90;;;;;;5071076;28;20016;-58
2022/03/16 08:23:40;;;;;;;33.63;18.95;;;6.60;99.90;;;;;;5069216;28;20034;-61
2022/03/16 08:26:06;;;;;;;32.15;18.38;;;6.70;99.90;;;;;;5070310;28;20028;-56
2022/03/16 08:28:31;;;;;;;35.03;17.98;;;6.70;99.90;;;;;;5070368;28;20032;-61
2022/03/16 08:30:58;;;;;;;30.88;17.92;;;6.80;99.90;;;;;;5071068;28;20024;-60
2022/03/16 08:33:23;;;;;;;32.65;18.42;;;7.00;99.90;;;;;;5070314;28;20048;-59
2022/03/16 08:35:50;;;;;;;34.28;18.05;;;7.00;99.90;;;;;;5070369;28;20466;-61
2022/03/16 08:38:16;;;;;;;33.63;19.33;;;7.10;99.90;;;;;;5069422;28;20025;-61
2022/03/16 08:40:41;;;;;;;33.55;18.30;;;7.20;99.90;;;;;;5070451;28;20109;-59
2022/03/16 08:43:07;;;;;;;36.70;19.33;;;7.20;99.90;;;;;;5068643;28;20020;-59
2022/03/16 08:45:33;;;;;;;34.03;19.23;;;7.30;99.90;;;;;;5073184;28;20020;-58
2022/03/16 08:47:59;;;;;;;31.45;18.80;;;7.30;99.90;;;;;;5069322;28;20082;-59
2022/03/16 08:50:25;;;;;;;33.85;19.27;;;7.30;99.90;;;;;;5069955;28;20023;-58
2022/03/16 08:52:51;;;;;;;36.85;19.08;;;7.40;99.90;;;;;;5065731;28;20088;-58
2022/03/16 08:55:17;;;;;;;33.65;18.83;;;7.40;99.90;;;;;;5062630;28;20107;-61
2022/03/16 08:57:45;;;;;;;34.25;18.90;;;7.40;99.90;;;;;;5069647;28;20039;-57
2022/03/16 09:00:15;;;;;;;36.95;17.90;;;7.50;99.90;;;;;;5072727;28;20062;-61
2022/03/16 09:02:41;;;;;;;32.88;18.75;;;7.60;99.90;;;;;;5072412;28;20028;-61
2022/03/16 09:05:08;;;;;;;31.70;18.88;;;7.70;99.90;;;;;;5066861;28;20024;-59
2022/03/16 09:07:34;;;;;;;29.55;18.27;;;7.90;99.90;;;;;;5070047;28;20436;-59
2022/03/16 09:09:59;;;;;;;35.30;19.05;;;8.00;99.90;;;;;;5069984;28;20016;-56
2022/03/16 09:12:25;;;;;;;32.85;17.85;;;8.20;99.90;;;;;;5070083;28;20024;-57
2022/03/16 09:14:50;;;;;;;29.85;18.30;;;8.30;99.90;;;;;;5069166;28;20351;-60
2022/03/16 09:17:17;;;;;;;29.35;17.63;;;8.40;99.90;;;;;;5065684;28;20085;-60
2022/03/16 09:19:43;;;;;;;29.42;16.90;;;8.60;99.90;;;;;;5069106;28;20044;-58
2022/03/16 09:22:09;;;;;;;26.60;16.67;;;8.70;99.90;;;;;;5069460;28;20031;-57
2022/03/16 09:24:35;;;;;;;28.13;17.17;;;8.90;99.90;;;;;;5069868;28;20024;-60
2022/03/16 09:27:00;;;;;;;30.80;16.83;;;9.00;99.90;;;;;;5069520;28;20028;-57
2022/03/16 09:29:28;;;;;;;29.17;17.17;;;9.10;99.90;;;;;;5068352;28;20406;-58
2022/03/16 09:31:54;;;;;;;32.95;18.65;;;9.20;99.90;;;;;;5068547;28;20366;-58
2022/03/16 09:34:19;;;;;;;27.50;16.20;;;9.30;99.90;;;;;;5069341;28;20036;-60
2022/03/16 09:36:45;;;;;;;28.85;16.83;;;9.50;99.90;;;;;;5067831;28;20016;-59
2022/03/16 09:39:11;;;;;;;26.92;15.45;;;9.70;99.90;;;;;;5070041;28;20048;-60
2022/03/16 09:41:37;;;;;;;31.48;16.35;;;9.80;99.90;;;;;;5069123;28;20539;-59
2022/03/16 09:44:04;;;;;;;26.52;15.18;;;9.90;99.90;;;;;;5067748;28;20052;-58
2022/03/16 09:46:32;;;;;;;24.05;14.95;;;10.00;99.90;;;;;;5069265;28;20094;-58
2022/03/16 09:48:59;;;;;;;23.90;14.93;;;10.10;99.90;;;;;;5070081;28;20029;-59
2022/03/16 09:51:34;;;;;;;23.77;14.57;;;10.20;99.90;;;;;;5069366;28;20095;-59
2022/03/16 09:54:00;;;;;;;22.80;12.75;;;10.40;99.90;;;;;;5068841;28;20111;-61
2022/03/16 09:56:26;;;;;;;22.65;13.02;;;10.50;99.90;;;;;;5069730;28;20052;-57
2022/03/16 09:58:51;;;;;;;22.70;14.02;;;10.80;99.90;;;;;;5070284;28;20028;-60
2022/03/16 10:01:18;;;;;;;22.70;13.73;;;10.90;99.90;;;;;;5072574;28;20027;-58
2022/03/16 10:03:48;;;;;;;25.23;13.20;;;11.00;99.90;;;;;;5071148;22;20033;-62
2022/03/16 10:06:16;;;;;;;21.85;13.80;;;11.20;99.90;;;;;;5050793;28;20017;-64
2022/03/16 10:13:13;;;;;;;22.35;12.50;;;11.30;99.90;;;;;;5049285;28;20032;-62
2022/03/16 10:14:16;;;;;;;;;;;11.80;99.90;;;;;;5023118;28;20095;-64
2022/03/16 10:19:49;;;;;;;19.08;11.93;;;12.10;99.90;;;;;;5049428;28;20032;-64
2022/03/16 10:22:31;;;;;;;20.75;11.55;;;12.10;99.90;;;;;;5047681;28;20065;-64
2022/03/16 10:25:05;;;;;;;21.75;12.52;;;12.20;99.90;;;;;;5046391;28;20037;-62
2022/03/16 10:27:35;;;;;;;18.52;11.93;;;12.40;99.90;;;;;;5038683;28;20025;-61
2022/03/16 10:30:01;;;;;;;19.73;12.60;;;12.40;99.90;;;;;;5036579;28;20041;-63
2022/03/16 10:32:26;;;;;;;18.85;11.43;;;12.40;99.90;;;;;;5034414;28;20017;-64
2022/03/16 10:34:53;;;;;;;19.08;11.98;;;12.40;99.90;;;;;;5029608;28;20025;-63
2022/03/16 10:37:23;;;;;;;19.30;11.80;;;12.50;99.90;;;;;;5031746;28;20082;-63
2022/03/16 10:39:51;;;;;;;17.77;12.18;;;12.70;99.90;;;;;;5031028;28;20028;-63
2022/03/16 10:48:10;;;;;;;15.80;10.43;;;13.00;99.90;;;;;;5043008;28;20123;-62
2022/03/16 10:50:39;;;;;;;17.27;11.18;;;13.20;99.90;;;;;;5037149;28;20009;-65
2022/03/16 10:53:05;;;;;;;17.73;11.20;;;13.20;99.90;;;;;;5019982;28;20021;-63
2022/03/16 10:55:31;;;;;;;17.67;11.60;;;13.20;99.90;;;;;;5039883;28;20075;-61
2022/03/16 10:57:57;;;;;;;17.48;11.02;;;13.30;99.90;;;;;;5044788;28;20120;-61
2022/03/16 11:00:27;;;;;;;16.08;10.45;;;13.30;99.90;;;;;;5038924;28;20055;-63
2022/03/16 11:02:54;;;;;;;17.33;10.60;;;13.40;99.90;;;;;;5040267;28;20029;-60
2022/03/16 11:05:20;;;;;;;14.30;10.57;;;13.40;99.90;;;;;;5043392;28;20104;-62
2022/03/16 11:07:49;;;;;;;14.48;10.57;;;13.50;99.90;;;;;;5049462;28;20079;-61
2022/03/16 11:10:16;;;;;;;16.42;11.10;;;13.60;99.90;;;;;;5036433;28;20085;-62
2022/03/16 11:15:27;;;;;;;;;;;13.50;99.90;;;;;;5031139;28;20031;-63
2022/03/16 11:17:52;;;;;;;17.80;11.93;;;13.70;99.90;;;;;;5042650;28;20051;-61
2022/03/16 11:20:19;;;;;;;18.33;12.20;;;13.70;99.90;;;;;;5019883;28;20028;-61
2022/03/16 11:26:13;;;;;;;17.60;11.80;;;13.70;99.90;;;;;;5026281;28;20048;-63
2022/03/16 11:28:57;;;;;;;16.98;11.77;;;13.40;99.90;;;;;;5036707;28;20029;-61
2022/03/16 11:31:25;;;;;;;21.03;12.00;;;13.30;99.90;;;;;;5032533;28;20021;-62
2022/03/16 11:33:52;;;;;;;17.05;11.85;;;13.60;99.90;;;;;;5029008;28;20060;-62
2022/03/16 11:36:31;;;;;;;16.67;11.40;;;13.90;99.90;;;;;;5031479;28;20013;-64
2022/03/16 11:38:59;;;;;;;15.23;10.85;;;14.10;99.90;;;;;;5038815;28;20089;-63
2022/03/16 11:41:26;;;;;;;17.38;11.05;;;14.30;99.90;;;;;;5033478;28;20013;-63
2022/03/16 11:44:24;;;;;;;17.25;11.23;;;14.60;99.90;;;;;;5042632;28;20083;-61
2022/03/16 11:46:50;;;;;;;15.48;10.70;;;14.80;99.90;;;;;;5033279;28;20033;-64
2022/03/16 11:49:26;;;;;;;19.50;11.85;;;14.80;99.90;;;;;;5038300;28;20163;-62
2022/03/16 11:51:59;;;;;;;15.85;11.20;;;14.50;99.90;;;;;;5033138;28;20024;-61
2022/03/16 11:55:00;;;;;;;15.38;11.23;;;14.50;99.90;;;;;;5037596;28;20024;-63
2022/03/16 11:57:48;;;;;;;19.77;11.15;;;14.60;99.90;;;;;;4968851;28;20428;-61
2022/03/16 12:00:15;;;;;;;16.75;10.75;;;14.70;99.90;;;;;;5047196;28;20037;-62
2022/03/16 12:02:40;;;;;;;15.85;10.85;;;14.90;99.90;;;;;;5046726;28;20467;-63
2022/03/16 12:05:09;;;;;;;16.80;11.68;;;15.00;99.90;;;;;;5043357;28;20063;-62
2022/03/16 12:07:36;;;;;;;16.88;11.10;;;15.10;99.90;;;;;;5039361;28;20017;-60
2022/03/16 12:10:11;;;;;;;16.23;11.68;;;15.40;99.90;;;;;;5041237;28;20024;-61
2022/03/16 12:12:57;;;;;;;21.58;11.52;;;15.40;99.90;;;;;;5000324;28;20028;-63
2022/03/16 12:15:34;;;;;;;17.67;9.98;;;15.40;99.90;;;;;;5039139;28;20021;-63
2022/03/16 12:17:59;;;;;;;21.20;11.15;;;15.70;99.90;;;;;;5036566;28;20075;-63
2022/03/16 12:20:38;;;;;;;20.13;11.68;;;15.80;99.90;;;;;;5032556;28;20037;-63
2022/03/16 12:23:10;;;;;;;15.88;10.43;;;15.70;99.90;;;;;;5040869;28;20036;-63
2022/03/16 12:25:42;;;;;;;15.80;10.60;;;15.60;99.90;;;;;;5040953;28;20359;-63
2022/03/16 12:31:12;;;;;;;15.25;10.52;;;15.60;99.90;;;;;;5041117;28;20105;-64
2022/03/16 12:33:41;;;;;;;16.25;11.35;;;15.70;99.90;;;;;;5032275;28;20021;-64
2022/03/16 12:36:12;;;;;;;16.23;10.77;;;15.60;99.90;;;;;;5032607;28;20534;-63
2022/03/16 12:38:43;;;;;;;14.10;9.75;;;15.70;99.90;;;;;;5035414;28;20120;-64
2022/03/16 12:43:56;;;;;;;18.90;10.85;;;15.40;99.90;;;;;;5048801;28;20040;-62
2022/03/16 12:46:52;;;;;;;17.10;10.40;;;15.10;99.90;;;;;;5032172;28;20037;-61
2022/03/16 12:49:20;;;;;;;13.55;9.57;;;15.10;99.90;;;;;;5039946;28;20120;-62
2022/03/16 12:51:54;;;;;;;15.70;10.65;;;15.10;99.90;;;;;;5050038;28;20096;-63
2022/03/16 12:54:29;;;;;;;14.75;10.07;;;15.10;99.90;;;;;;5031915;28;20124;-63
2022/03/16 12:57:06;;;;;;;13.30;10.00;;;15.10;99.90;;;;;;5036744;28;20032;-63
2022/03/16 12:59:35;;;;;;;12.93;9.07;;;15.30;99.90;;;;;;5048770;28;20487;-63